Time;durP1;ratioP1;P1;durP2;ratioP2;P2;SDS_P1;SDS_P2;PMS_P1;PMS_P2;Temp;Humidity;BMP_temperature;BMP_pressure;BME280_temperature;BME280_humidity;BME280_pressure;Samples;Min_cycle;Max_cycle;Signal;HPM_P1;HPM_P2
2023/11/10 00:02:21;;;;;;;87.93;79.53;;;6.90;99.90;;;;;;5050669;28;20440;-81
2023/11/10 00:04:50;;;;;;;96.50;87.40;;;6.90;99.90;;;;;;5050799;28;20166;-81
2023/11/10 00:07:19;;;;;;;83.63;75.40;;;6.90;99.90;;;;;;5033100;28;20166;-81
2023/11/10 00:09:45;;;;;;;89.93;81.25;;;7.00;99.90;;;;;;5050518;28;20186;-81
2023/11/10 00:12:14;;;;;;;88.28;79.53;;;7.00;99.90;;;;;;5050793;28;20181;-81
2023/11/10 00:14:40;;;;;;;81.68;73.53;;;6.90;99.90;;;;;;5050083;28;20564;-81
2023/11/10 00:17:09;;;;;;;95.45;86.35;;;6.90;99.90;;;;;;5050177;28;20173;-81
2023/11/10 00:19:39;;;;;;;75.25;67.38;;;7.00;99.90;;;;;;5050380;28;20166;-81
2023/11/10 00:22:04;;;;;;;79.30;71.22;;;7.00;99.90;;;;;;5050062;28;20225;-81
2023/11/10 00:24:33;;;;;;;85.40;77.10;;;6.90;99.90;;;;;;5049654;28;20667;-81
2023/11/10 00:27:02;;;;;;;80.03;71.90;;;6.80;99.90;;;;;;5050348;28;20400;-81
2023/11/10 00:29:28;;;;;;;70.15;62.45;;;6.70;99.90;;;;;;5049863;28;20169;-81
2023/11/10 00:31:54;;;;;;;86.10;77.23;;;6.70;99.90;;;;;;5049567;28;20193;-81
2023/11/10 00:34:20;;;;;;;80.85;72.70;;;6.70;99.90;;;;;;5049876;28;20424;-81
2023/11/10 00:36:46;;;;;;;83.00;74.77;;;6.80;99.90;;;;;;5050161;28;20162;-81
2023/11/10 00:39:11;;;;;;;97.40;88.22;;;6.80;99.90;;;;;;5052305;28;20243;-81
2023/11/10 00:41:37;;;;;;;80.60;72.37;;;6.70;99.90;;;;;;5053363;28;20189;-81
2023/11/10 00:44:03;;;;;;;75.73;67.93;;;6.70;99.90;;;;;;5052904;28;20201;-81
2023/11/10 00:46:29;;;;;;;70.27;60.43;;;6.80;99.90;;;;;;5052979;28;20392;-81
2023/11/10 00:48:54;;;;;;;80.73;72.53;;;6.80;99.90;;;;;;5052885;28;20400;-81
2023/11/10 00:51:20;;;;;;;79.43;71.27;;;6.80;99.90;;;;;;5053583;28;20166;-81
2023/11/10 00:53:46;;;;;;;94.90;85.77;;;6.80;99.90;;;;;;5053396;28;20555;-81
2023/11/10 00:56:11;;;;;;;72.87;64.40;;;6.80;99.90;;;;;;5053052;28;20197;-81
2023/11/10 00:58:37;;;;;;;75.67;67.87;;;6.80;99.90;;;;;;5052938;28;20166;-81
2023/11/10 01:01:03;;;;;;;85.03;76.80;;;6.80;99.90;;;;;;5053513;28;20193;-81
2023/11/10 01:03:28;;;;;;;74.00;65.70;;;6.80;99.90;;;;;;5053119;28;20178;-81
2023/11/10 01:05:54;;;;;;;71.07;61.47;;;6.80;99.90;;;;;;5053204;28;20162;-81
2023/11/10 01:08:20;;;;;;;81.03;73.00;;;6.70;99.90;;;;;;5053634;28;20162;-81
2023/11/10 01:10:45;;;;;;;75.90;68.10;;;6.60;99.90;;;;;;5035212;28;20177;-81
2023/11/10 01:13:14;;;;;;;83.87;75.07;;;6.70;99.90;;;;;;5035406;28;20216;-81
2023/11/10 01:15:40;;;;;;;76.20;68.28;;;6.70;99.90;;;;;;5053164;28;20428;-81
2023/11/10 01:18:06;;;;;;;83.18;74.95;;;6.70;99.90;;;;;;5035836;28;20204;-81
2023/11/10 01:20:32;;;;;;;70.23;62.43;;;6.70;99.90;;;;;;5052787;28;20162;-81
2023/11/10 01:22:59;;;;;;;77.53;69.50;;;6.70;99.90;;;;;;5052412;28;20197;-81
2023/11/10 01:25:24;;;;;;;86.45;77.75;;;6.70;99.90;;;;;;5052812;28;20407;-81
2023/11/10 01:27:53;;;;;;;76.30;68.50;;;6.70;99.90;;;;;;5053032;28;20221;-81
2023/11/10 01:30:19;;;;;;;90.45;81.47;;;6.70;99.90;;;;;;5052212;28;20162;-81
2023/11/10 01:32:45;;;;;;;74.95;67.13;;;6.60;99.90;;;;;;5034957;28;20174;-81
2023/11/10 01:35:11;;;;;;;72.63;63.63;;;6.70;99.90;;;;;;5052374;28;20169;-81
2023/11/10 01:37:37;;;;;;;69.60;61.07;;;6.70;99.90;;;;;;5034859;28;20170;-81
2023/11/10 01:40:04;;;;;;;68.57;59.00;;;6.80;99.90;;;;;;5035492;28;21009;-81
2023/11/10 01:42:30;;;;;;;79.88;71.63;;;6.70;99.90;;;;;;5051121;28;20197;-81
2023/11/10 01:44:56;;;;;;;94.37;85.30;;;6.70;99.90;;;;;;5045446;23;20222;-81
2023/11/10 01:47:22;;;;;;;101.60;91.90;;;6.70;99.90;;;;;;5028855;28;20197;-81
2023/11/10 01:49:48;;;;;;;103.25;93.82;;;6.70;99.90;;;;;;5028904;28;20163;-81
2023/11/10 01:52:14;;;;;;;87.95;79.60;;;6.80;99.90;;;;;;5030817;28;20226;-81
2023/11/10 01:54:40;;;;;;;86.73;78.40;;;6.80;99.90;;;;;;5029584;28;20190;-81
2023/11/10 01:57:06;;;;;;;83.17;74.90;;;6.70;99.90;;;;;;5030020;28;20394;-81
2023/11/10 01:59:36;;;;;;;85.25;76.95;;;6.80;99.90;;;;;;5030312;28;20405;-81
2023/11/10 02:02:05;;;;;;;116.60;106.68;;;6.80;99.90;;;;;;5029808;28;20182;-81
2023/11/10 02:04:35;;;;;;;95.70;86.65;;;6.80;99.90;;;;;;5029725;28;20189;-81
2023/11/10 02:07:01;;;;;;;94.07;85.47;;;6.80;99.90;;;;;;5030476;28;20241;-81
2023/11/10 02:09:27;;;;;;;74.73;66.83;;;6.80;99.90;;;;;;5030227;28;20185;-81
2023/11/10 02:11:53;;;;;;;81.80;73.67;;;6.90;99.90;;;;;;5028980;28;20166;-81
2023/11/10 02:14:19;;;;;;;102.82;93.43;;;6.80;99.90;;;;;;5029191;28;20529;-81
2023/11/10 02:16:45;;;;;;;102.87;93.37;;;6.80;99.90;;;;;;5029401;28;20175;-81
2023/11/10 02:19:15;;;;;;;81.93;73.87;;;6.80;99.90;;;;;;5030350;28;20405;-81
2023/11/10 02:21:42;;;;;;;91.40;82.38;;;6.90;99.90;;;;;;5029885;28;20202;-81
2023/11/10 02:24:10;;;;;;;77.55;69.05;;;7.00;99.90;;;;;;5028443;28;20262;-81
2023/11/10 02:26:36;;;;;;;92.07;83.05;;;7.10;99.90;;;;;;5026597;28;20163;-80
2023/11/10 02:29:02;;;;;;;93.97;84.88;;;7.30;99.90;;;;;;5025238;28;20163;-80
2023/11/10 02:31:29;;;;;;;80.57;72.35;;;7.40;99.90;;;;;;5026266;28;20170;-80
2023/11/10 02:33:55;;;;;;;83.15;74.70;;;7.40;99.90;;;;;;5026372;28;20182;-80
2023/11/10 02:36:21;;;;;;;79.93;71.77;;;7.30;99.90;;;;;;5026777;28;20234;-81
2023/11/10 02:38:47;;;;;;;100.45;91.25;;;7.30;99.90;;;;;;5027107;28;20412;-81
2023/11/10 02:41:22;;;;;;;95.03;85.53;;;7.20;99.90;;;;;;5026656;28;20210;-81
2023/11/10 02:43:48;;;;;;;82.97;74.57;;;7.20;99.90;;;;;;5027441;28;20683;-81
2023/11/10 02:46:16;;;;;;;105.83;96.20;;;7.20;99.90;;;;;;5026656;28;20209;-80
2023/11/10 02:48:42;;;;;;;75.63;67.72;;;7.20;99.90;;;;;;5026906;28;20174;-81
2023/11/10 02:51:08;;;;;;;85.43;77.13;;;7.20;99.90;;;;;;5027133;28;20181;-81
2023/11/10 02:53:33;;;;;;;84.77;76.33;;;7.20;99.90;;;;;;5027350;28;20603;-81
2023/11/10 02:56:01;;;;;;;82.60;74.50;;;7.10;99.90;;;;;;5027881;28;20174;-81
2023/11/10 02:58:27;;;;;;;80.75;71.18;;;7.10;99.90;;;;;;5028724;28;20174;-81
2023/11/10 03:00:53;;;;;;;85.00;76.60;;;7.10;99.90;;;;;;5026682;28;20194;-81
2023/11/10 03:03:19;;;;;;;86.90;78.60;;;7.10;99.90;;;;;;5028111;28;20179;-81
2023/11/10 03:05:45;;;;;;;78.30;69.93;;;7.10;99.90;;;;;;5028151;28;20405;-81
2023/11/10 03:08:11;;;;;;;82.23;74.03;;;7.10;99.90;;;;;;5028279;28;20181;-81
2023/11/10 03:10:37;;;;;;;89.88;81.10;;;7.10;99.90;;;;;;5027870;28;20162;-81
2023/11/10 03:13:03;;;;;;;81.28;73.03;;;7.00;99.90;;;;;;5028293;28;20178;-81
2023/11/10 03:15:29;;;;;;;84.45;75.78;;;7.00;99.90;;;;;;5028308;28;20165;-81
2023/11/10 03:17:58;;;;;;;99.65;90.30;;;7.00;99.90;;;;;;5029197;28;20173;-81
2023/11/10 03:20:24;;;;;;;80.97;72.32;;;7.00;99.90;;;;;;5028351;28;20168;-81
2023/11/10 03:22:50;;;;;;;78.60;70.43;;;7.10;99.90;;;;;;5028651;28;20218;-81
2023/11/10 03:25:16;;;;;;;74.63;66.28;;;7.00;99.90;;;;;;5028607;28;20402;-81
2023/11/10 03:27:42;;;;;;;96.20;86.73;;;7.00;99.90;;;;;;5028948;28;20588;-82
2023/11/10 03:30:11;;;;;;;84.13;75.87;;;7.00;99.90;;;;;;5029126;28;20417;-81
2023/11/10 03:32:37;;;;;;;106.03;96.22;;;7.10;99.90;;;;;;5029092;28;20217;-81
2023/11/10 03:35:04;;;;;;;82.00;73.83;;;7.20;99.90;;;;;;5029688;28;20167;-81
2023/11/10 03:37:30;;;;;;;96.25;86.97;;;7.10;99.90;;;;;;5028472;28;20186;-81
2023/11/10 03:39:56;;;;;;;84.17;75.60;;;7.20;99.90;;;;;;5028863;28;20173;-81
2023/11/10 03:42:21;;;;;;;101.13;91.70;;;7.30;99.90;;;;;;5029170;28;20197;-80
2023/11/10 03:44:47;;;;;;;102.77;93.17;;;7.30;99.90;;;;;;5028839;28;20217;-81
2023/11/10 03:47:13;;;;;;;92.82;84.13;;;7.40;99.90;;;;;;5028794;28;20162;-81
2023/11/10 03:49:40;;;;;;;93.80;84.93;;;7.40;99.90;;;;;;5027927;28;20197;-81
2023/11/10 03:52:06;;;;;;;87.63;78.78;;;7.40;99.90;;;;;;5028369;28;20228;-81
2023/11/10 03:54:32;;;;;;;93.70;85.10;;;7.50;99.90;;;;;;5027589;28;20190;-81
2023/11/10 03:56:57;;;;;;;101.20;91.77;;;7.50;99.90;;;;;;5028123;28;20171;-81
2023/11/10 03:59:23;;;;;;;105.73;96.20;;;7.50;99.90;;;;;;5029123;28;20245;-81
2023/11/10 04:01:49;;;;;;;101.30;92.03;;;7.50;99.90;;;;;;5028869;28;20456;-81
2023/11/10 04:04:14;;;;;;;107.03;97.30;;;7.50;99.90;;;;;;5028733;28;20186;-81
2023/11/10 04:06:40;;;;;;;97.80;89.00;;;7.50;99.90;;;;;;5027405;28;20169;-81
2023/11/10 04:09:07;;;;;;;113.53;103.60;;;7.50;99.90;;;;;;5028960;28;20189;-81
2023/11/10 04:11:32;;;;;;;100.97;91.88;;;7.50;99.90;;;;;;5029104;28;20245;-81
2023/11/10 04:13:58;;;;;;;104.00;94.43;;;7.50;99.90;;;;;;5030330;28;20190;-81
2023/11/10 04:16:24;;;;;;;105.73;96.50;;;7.50;99.90;;;;;;5032524;28;20213;-81
2023/11/10 04:18:52;;;;;;;102.60;93.55;;;7.50;99.90;;;;;;5032571;28;20190;-81
2023/11/10 04:21:19;;;;;;;95.35;86.60;;;7.60;99.90;;;;;;5030339;28;20197;-81
2023/11/10 04:23:45;;;;;;;98.05;88.70;;;7.60;99.90;;;;;;5032189;28;20186;-81
2023/11/10 04:26:13;;;;;;;110.00;100.38;;;7.70;99.90;;;;;;5031421;28;20170;-81
2023/11/10 04:28:39;;;;;;;93.53;84.80;;;7.60;99.90;;;;;;5032375;28;20166;-81
2023/11/10 04:31:05;;;;;;;106.30;97.03;;;7.60;99.90;;;;;;5032208;28;20532;-81
2023/11/10 04:33:30;;;;;;;82.40;73.97;;;7.60;99.90;;;;;;5031027;28;20226;-81
2023/11/10 04:35:59;;;;;;;92.53;83.60;;;7.60;99.90;;;;;;5031980;28;20163;-81
2023/11/10 04:38:27;;;;;;;99.97;91.07;;;7.60;99.90;;;;;;5032248;28;20198;-81
2023/11/10 04:40:54;;;;;;;93.38;84.45;;;7.60;99.90;;;;;;5032584;28;20277;-81
2023/11/10 04:43:20;;;;;;;102.75;93.13;;;7.70;99.90;;;;;;5032499;28;20696;-81
2023/11/10 04:45:46;;;;;;;100.13;91.00;;;7.60;99.90;;;;;;5030257;28;20175;-81
2023/11/10 04:48:11;;;;;;;127.33;116.83;;;7.60;99.90;;;;;;5032059;28;20174;-81
2023/11/10 04:50:40;;;;;;;101.40;92.10;;;7.50;99.90;;;;;;5031954;28;20270;-81
2023/11/10 04:53:07;;;;;;;96.68;87.70;;;7.60;99.90;;;;;;5031697;28;20198;-81
2023/11/10 04:55:32;;;;;;;90.72;82.07;;;7.60;99.90;;;;;;5032419;28;20171;-81
2023/11/10 04:57:58;;;;;;;92.40;83.80;;;7.50;99.90;;;;;;5032075;28;20186;-81
2023/11/10 05:00:24;;;;;;;97.73;88.83;;;7.60;99.90;;;;;;5031773;28;20616;-81
2023/11/10 05:02:50;;;;;;;85.87;77.57;;;7.60;99.90;;;;;;5031943;28;20186;-81
2023/11/10 05:05:20;;;;;;;90.70;81.68;;;7.50;99.90;;;;;;5030901;28;20182;-81
2023/11/10 05:07:45;;;;;;;81.90;73.60;;;7.60;99.90;;;;;;5031338;28;20158;-81
2023/11/10 05:10:12;;;;;;;99.93;90.57;;;7.50;99.90;;;;;;5031443;28;20174;-81
2023/11/10 05:12:38;;;;;;;102.60;93.15;;;7.50;99.90;;;;;;5030551;28;20410;-81
2023/11/10 05:15:06;;;;;;;95.20;86.30;;;7.60;99.90;;;;;;5030730;28;20162;-81
2023/11/10 05:17:36;;;;;;;94.30;85.60;;;7.60;99.90;;;;;;5031450;28;20687;-81
2023/11/10 05:20:03;;;;;;;95.78;86.93;;;7.60;99.90;;;;;;5031068;28;20173;-81
2023/11/10 05:22:29;;;;;;;96.78;87.38;;;7.60;99.90;;;;;;5031655;28;20190;-81
2023/11/10 05:24:57;;;;;;;97.88;89.05;;;7.60;99.90;;;;;;5030120;28;20265;-81
2023/11/10 05:27:23;;;;;;;88.03;79.57;;;7.60;99.90;;;;;;5031808;28;20288;-81
2023/11/10 05:29:49;;;;;;;105.50;96.03;;;7.60;99.90;;;;;;5030934;28;20158;-81
2023/11/10 05:32:14;;;;;;;87.77;79.27;;;7.60;99.90;;;;;;5031666;28;20237;-81
2023/11/10 05:34:40;;;;;;;99.37;89.97;;;7.60;99.90;;;;;;5031959;28;20185;-81
2023/11/10 05:37:10;;;;;;;95.40;86.00;;;7.60;99.90;;;;;;5031850;28;20447;-81
2023/11/10 05:39:36;;;;;;;93.43;84.50;;;7.60;99.90;;;;;;5030130;28;20174;-80
2023/11/10 05:42:01;;;;;;;96.95;88.18;;;7.60;99.90;;;;;;5032025;28;20194;-81
2023/11/10 05:44:28;;;;;;;107.60;97.60;;;7.60;99.90;;;;;;5031474;28;20202;-81
2023/11/10 05:46:53;;;;;;;96.47;87.50;;;7.60;99.90;;;;;;5031899;28;20317;-81
2023/11/10 05:49:19;;;;;;;96.03;86.90;;;7.70;99.90;;;;;;5031410;28;20166;-81
2023/11/10 05:51:46;;;;;;;91.65;83.13;;;7.70;99.90;;;;;;5032338;28;20254;-81
2023/11/10 05:54:13;;;;;;;100.10;91.13;;;7.70;99.90;;;;;;5031423;28;20189;-81
2023/11/10 05:56:39;;;;;;;95.70;86.95;;;7.70;99.90;;;;;;5031602;28;20163;-81
2023/11/10 05:59:04;;;;;;;89.00;80.40;;;7.70;99.90;;;;;;5030107;28;20193;-81
2023/11/10 06:01:30;;;;;;;92.70;84.00;;;7.80;99.90;;;;;;5030644;28;20453;-81
2023/11/10 06:03:56;;;;;;;92.90;83.37;;;7.80;99.90;;;;;;5031310;28;20946;-81
2023/11/10 06:06:23;;;;;;;79.90;71.70;;;7.80;99.90;;;;;;5031211;28;20421;-81
2023/11/10 06:08:49;;;;;;;89.90;81.13;;;7.80;99.90;;;;;;5030446;28;20414;-81
2023/11/10 06:11:22;;;;;;;81.67;73.50;;;7.80;99.90;;;;;;5030647;28;20226;-81
2023/11/10 06:13:48;;;;;;;93.50;84.25;;;7.70;99.90;;;;;;5030682;28;20190;-81
2023/11/10 06:16:18;;;;;;;74.53;66.57;;;7.70;99.90;;;;;;5031383;28;20174;-81
2023/11/10 06:18:44;;;;;;;72.32;62.85;;;7.80;99.90;;;;;;5030897;28;20648;-81
2023/11/10 06:21:11;;;;;;;86.35;77.38;;;7.80;99.90;;;;;;5029789;28;20194;-81
2023/11/10 06:23:37;;;;;;;91.22;82.10;;;7.80;99.90;;;;;;5031067;28;20197;-81
2023/11/10 06:26:05;;;;;;;88.20;79.05;;;7.80;99.90;;;;;;5030734;28;20221;-81
2023/11/10 06:28:31;;;;;;;97.30;87.43;;;7.80;99.90;;;;;;5030550;28;20170;-81
2023/11/10 06:30:57;;;;;;;77.35;66.70;;;7.80;99.90;;;;;;5029833;28;20191;-80
2023/11/10 06:33:24;;;;;;;79.07;70.53;;;7.70;99.90;;;;;;5031185;28;20198;-81
2023/11/10 06:35:50;;;;;;;75.03;63.50;;;7.70;99.90;;;;;;5028395;28;20410;-81
2023/11/10 06:38:16;;;;;;;82.75;73.85;;;7.60;99.90;;;;;;5030417;28;20662;-81
2023/11/10 06:40:41;;;;;;;71.33;59.07;;;7.60;99.90;;;;;;5029173;28;20178;-80
2023/11/10 06:43:07;;;;;;;70.83;62.07;;;7.50;99.90;;;;;;5028282;28;20224;-80
2023/11/10 06:45:33;;;;;;;77.33;65.00;;;7.40;99.90;;;;;;5029110;28;20186;-80
2023/11/10 06:48:03;;;;;;;74.47;66.23;;;7.40;99.90;;;;;;5027918;28;20162;-80
2023/11/10 06:50:32;;;;;;;91.88;82.32;;;7.40;99.90;;;;;;5028710;28;20409;-80
2023/11/10 06:52:58;;;;;;;91.35;82.18;;;7.30;99.90;;;;;;5028859;28;20190;-80
2023/11/10 06:55:24;;;;;;;95.78;86.00;;;7.40;99.90;;;;;;5027368;28;20536;-80
2023/11/10 06:57:51;;;;;;;75.03;67.07;;;7.40;99.90;;;;;;5028694;28;20157;-80
2023/11/10 07:00:17;;;;;;;77.80;69.57;;;7.30;99.90;;;;;;5028347;28;20158;-80
2023/11/10 07:02:46;;;;;;;90.03;81.28;;;7.30;99.90;;;;;;5027510;28;20196;-80
2023/11/10 07:05:20;;;;;;;100.00;90.63;;;7.40;99.90;;;;;;5027021;28;20167;-80
2023/11/10 07:07:46;;;;;;;74.97;66.30;;;7.40;99.90;;;;;;5027231;28;20174;-80
2023/11/10 07:10:13;;;;;;;75.87;67.83;;;7.50;99.90;;;;;;5027909;28;20167;-80
2023/11/10 07:12:38;;;;;;;103.68;94.20;;;7.50;99.90;;;;;;5027564;28;20231;-80
2023/11/10 07:15:05;;;;;;;93.80;84.93;;;7.50;99.90;;;;;;5027250;28;20665;-80
2023/11/10 07:17:31;;;;;;;103.97;94.40;;;7.60;99.90;;;;;;5027753;28;20173;-80
2023/11/10 07:19:57;;;;;;;102.20;92.73;;;7.70;99.90;;;;;;5028342;28;20643;-80
2023/11/10 07:22:23;;;;;;;111.63;101.65;;;7.70;99.90;;;;;;5027921;28;20250;-80
2023/11/10 07:24:49;;;;;;;105.67;96.10;;;7.80;99.90;;;;;;5026972;28;20182;-80
2023/11/10 07:27:15;;;;;;;95.17;86.17;;;7.80;99.90;;;;;;5026574;28;20189;-80
2023/11/10 07:29:41;;;;;;;105.57;96.22;;;7.90;99.90;;;;;;5026830;28;20164;-80
2023/11/10 07:32:10;;;;;;;96.30;87.57;;;7.90;99.90;;;;;;5025422;28;20222;-80
2023/11/10 07:34:35;;;;;;;107.47;97.78;;;8.00;99.90;;;;;;5024917;28;20254;-80
2023/11/10 07:37:01;;;;;;;109.60;99.83;;;8.00;99.90;;;;;;5025617;28;20174;-80
2023/11/10 07:39:28;;;;;;;88.50;79.97;;;8.10;99.90;;;;;;5025795;28;20165;-80
2023/11/10 07:41:58;;;;;;;99.35;90.18;;;8.20;99.90;;;;;;5026372;28;20186;-80
2023/11/10 07:44:24;;;;;;;89.45;80.68;;;8.20;99.90;;;;;;5026118;28;20206;-80
2023/11/10 07:46:49;;;;;;;90.80;82.30;;;8.20;99.90;;;;;;5026552;28;20162;-80
2023/11/10 07:49:15;;;;;;;90.53;81.63;;;8.20;99.90;;;;;;5026894;28;20402;-80
2023/11/10 07:51:41;;;;;;;79.53;71.43;;;8.30;99.90;;;;;;5027359;28;20170;-79
2023/11/10 07:54:07;;;;;;;79.37;71.27;;;8.30;99.90;;;;;;5025135;28;20437;-80
2023/11/10 07:56:32;;;;;;;96.20;86.87;;;8.30;99.90;;;;;;5026685;28;20174;-80
2023/11/10 07:58:58;;;;;;;87.27;78.70;;;8.30;99.90;;;;;;5027204;28;20169;-80
2023/11/10 08:01:24;;;;;;;72.73;61.87;;;8.30;99.90;;;;;;5025883;28;20230;-80
2023/11/10 08:03:50;;;;;;;83.37;74.03;;;8.30;99.90;;;;;;5025409;28;20182;-80
2023/11/10 08:06:16;;;;;;;70.18;58.00;;;8.50;99.90;;;;;;5025860;28;20159;-80
2023/11/10 08:08:42;;;;;;;77.87;69.47;;;8.50;99.90;;;;;;5026570;28;20173;-80
2023/11/10 08:11:11;;;;;;;79.65;71.10;;;8.50;99.90;;;;;;5025392;28;20173;-80
2023/11/10 08:13:40;;;;;;;71.68;62.20;;;8.60;99.90;;;;;;5025924;28;20191;-80
2023/11/10 08:16:09;;;;;;;83.60;73.63;;;8.60;99.90;;;;;;5026360;28;20644;-80
2023/11/10 08:18:35;;;;;;;72.35;61.72;;;8.70;99.90;;;;;;5026046;28;20186;-80
2023/11/10 08:21:00;;;;;;;70.20;60.43;;;8.80;99.90;;;;;;5026216;28;20677;-80
2023/11/10 08:23:26;;;;;;;79.23;71.13;;;8.80;99.90;;;;;;5025539;28;20189;-80
2023/11/10 08:25:52;;;;;;;67.83;57.57;;;8.90;99.90;;;;;;5024310;28;20170;-80
2023/11/10 08:28:18;;;;;;;73.37;65.40;;;8.90;99.90;;;;;;5023222;28;20402;-80
2023/11/10 08:30:44;;;;;;;71.28;61.50;;;8.90;99.90;;;;;;5019167;28;20154;-80
2023/11/10 08:33:10;;;;;;;70.65;59.67;;;8.90;99.90;;;;;;5024278;28;20191;-80
2023/11/10 08:35:39;;;;;;;72.33;64.43;;;9.00;99.90;;;;;;5026798;28;20167;-80
2023/11/10 08:38:05;;;;;;;70.47;57.53;;;9.00;99.90;;;;;;5025541;28;20167;-80
2023/11/10 08:40:31;;;;;;;67.18;46.55;;;9.10;99.90;;;;;;5025155;28;20224;-80
2023/11/10 08:42:56;;;;;;;63.63;47.43;;;9.20;99.90;;;;;;5025796;28;20261;-80
2023/11/10 08:45:23;;;;;;;63.30;42.83;;;9.20;99.90;;;;;;5027043;28;20162;-80
2023/11/10 08:47:49;;;;;;;62.85;43.47;;;9.30;99.90;;;;;;5026405;28;20175;-80
2023/11/10 08:50:15;;;;;;;64.43;47.47;;;9.30;99.90;;;;;;5027286;28;20228;-80
2023/11/10 08:52:41;;;;;;;64.87;49.30;;;9.30;99.90;;;;;;5026477;28;20201;-80
2023/11/10 08:55:11;;;;;;;60.00;39.47;;;9.30;99.90;;;;;;5027064;28;20162;-80
2023/11/10 08:57:38;;;;;;;70.88;63.05;;;9.30;99.90;;;;;;5026559;28;20162;-80
2023/11/10 09:00:09;;;;;;;60.33;44.90;;;9.20;99.90;;;;;;5028212;28;20162;-80
2023/11/10 09:02:41;;;;;;;65.20;48.80;;;9.20;99.90;;;;;;5030880;28;20175;-80
2023/11/10 09:05:11;;;;;;;67.85;49.08;;;9.10;99.90;;;;;;5031077;28;20194;-80
2023/11/10 09:07:38;;;;;;;68.30;52.58;;;9.10;99.90;;;;;;5027643;28;20171;-80
2023/11/10 09:10:04;;;;;;;66.85;51.95;;;9.10;99.90;;;;;;5027985;28;20232;-80
2023/11/10 09:12:32;;;;;;;64.25;51.50;;;9.10;99.90;;;;;;5030671;28;20170;-80
2023/11/10 09:14:59;;;;;;;66.90;48.58;;;9.10;99.90;;;;;;5031004;28;20237;-80
2023/11/10 09:17:24;;;;;;;63.30;50.45;;;9.10;99.90;;;;;;5030767;28;20171;-80
2023/11/10 09:19:51;;;;;;;62.43;50.20;;;9.10;99.90;;;;;;5030153;28;20197;-80
2023/11/10 09:22:18;;;;;;;63.13;47.60;;;9.10;99.90;;;;;;5030064;28;20198;-80
2023/11/10 09:24:47;;;;;;;63.67;49.45;;;9.10;99.90;;;;;;5027750;28;20182;-80
2023/11/10 09:27:12;;;;;;;59.55;39.42;;;9.20;99.90;;;;;;5030721;28;20230;-80
2023/11/10 09:29:40;;;;;;;96.80;88.03;;;9.30;99.90;;;;;;5030733;28;20158;-80
2023/11/10 09:32:10;;;;;;;59.05;38.65;;;9.40;99.90;;;;;;5030084;28;20492;-80
2023/11/10 09:34:39;;;;;;;57.35;34.90;;;9.30;99.90;;;;;;5028423;28;20191;-80
2023/11/10 09:37:06;;;;;;;59.45;36.03;;;9.20;99.90;;;;;;5029684;28;20254;-80
2023/11/10 09:39:32;;;;;;;60.75;43.83;;;9.30;99.90;;;;;;5029950;28;20174;-80
2023/11/10 09:42:06;;;;;;;58.30;36.50;;;9.30;99.90;;;;;;5027454;28;20190;-80
2023/11/10 09:44:38;;;;;;;59.08;38.20;;;9.20;99.90;;;;;;5027833;28;20206;-80
2023/11/10 09:47:05;;;;;;;58.72;36.85;;;9.30;99.90;;;;;;5028476;28;20170;-80
2023/11/10 09:49:32;;;;;;;60.97;38.40;;;9.30;99.90;;;;;;5027442;28;20161;-80
2023/11/10 09:52:00;;;;;;;60.65;37.58;;;9.30;99.90;;;;;;5025931;28;20175;-80
2023/11/10 09:54:27;;;;;;;65.60;35.58;;;9.50;99.90;;;;;;5028605;28;20182;-80
2023/11/10 09:56:56;;;;;;;57.65;36.85;;;9.70;99.90;;;;;;5028275;28;20253;-80
2023/11/10 09:59:27;;;;;;;55.97;36.75;;;9.90;99.90;;;;;;5027046;28;20162;-80
2023/11/10 10:01:53;;;;;;;54.35;27.52;;;9.90;99.90;;;;;;5029401;28;20209;-80
2023/11/10 10:04:19;;;;;;;51.58;23.20;;;9.90;99.90;;;;;;5029006;28;20182;-80
2023/11/10 10:06:50;;;;;;;54.43;30.37;;;9.90;99.90;;;;;;5027928;28;20171;-80
2023/11/10 10:09:18;;;;;;;53.95;24.95;;;9.80;99.90;;;;;;5028376;28;20791;-80
2023/11/10 10:11:44;;;;;;;57.90;27.98;;;9.90;99.90;;;;;;5027644;28;20186;-80
2023/11/10 10:14:10;;;;;;;56.10;30.05;;;9.90;99.90;;;;;;5028485;28;20186;-80
2023/11/10 10:16:36;;;;;;;55.03;30.45;;;9.80;99.90;;;;;;5027993;28;20580;-80
2023/11/10 10:19:04;;;;;;;72.87;63.33;;;9.80;99.90;;;;;;5029497;28;20166;-80
2023/11/10 10:21:40;;;;;;;53.53;24.38;;;9.90;99.90;;;;;;5029437;28;20197;-80
2023/11/10 10:24:06;;;;;;;54.30;27.27;;;9.90;99.90;;;;;;5028992;28;20246;-80
2023/11/10 10:26:33;;;;;;;53.90;26.10;;;10.00;99.90;;;;;;5028391;28;20175;-80
2023/11/10 10:29:00;;;;;;;51.78;22.52;;;10.10;99.90;;;;;;5029349;28;20401;-80
2023/11/10 10:31:27;;;;;;;50.00;25.02;;;10.20;99.90;;;;;;5028369;28;20174;-80
2023/11/10 10:33:53;;;;;;;52.25;18.50;;;10.30;99.90;;;;;;5030241;28;20206;-80
2023/11/10 10:36:19;;;;;;;51.88;23.13;;;10.40;99.90;;;;;;5029198;28;20166;-80
2023/11/10 10:38:49;;;;;;;51.43;19.93;;;10.50;99.90;;;;;;5030597;28;20185;-80
2023/11/10 10:41:19;;;;;;;50.20;20.33;;;10.60;99.90;;;;;;5028857;28;20511;-80
2023/11/10 10:43:50;;;;;;;47.50;14.30;;;10.60;99.90;;;;;;5028244;28;20206;-80
2023/11/10 10:46:19;;;;;;;50.55;16.00;;;10.70;99.90;;;;;;5028233;28;20143;-80
2023/11/10 10:48:49;;;;;;;47.83;13.38;;;10.80;99.90;;;;;;5026866;28;20170;-80
2023/11/10 10:51:17;;;;;;;47.50;13.20;;;10.60;91.00;;;;;;5029579;28;20166;-80
2023/11/10 10:53:44;;;;;;;46.05;13.35;;;10.50;90.50;;;;;;5028616;28;20187;-80
2023/11/10 10:56:12;;;;;;;48.15;12.00;;;10.60;61.70;;;;;;5030262;28;20161;-81
2023/11/10 10:58:40;;;;;;;47.08;12.60;;;10.70;14.60;;;;;;5028364;28;20170;-80
2023/11/10 11:01:08;;;;;;;49.17;14.85;;;10.60;1.00;;;;;;5029208;28;20186;-80
2023/11/10 11:03:34;;;;;;;46.63;14.02;;;10.70;1.00;;;;;;5029756;28;20182;-80
2023/11/10 11:06:40;;;;;;;49.70;14.07;;;10.60;1.00;;;;;;5029929;28;20162;-80
2023/11/10 11:09:41;;;;;;;44.45;11.93;;;10.40;1.00;;;;;;5028624;28;20158;-80
2023/11/10 11:12:22;;;;;;;45.58;12.93;;;10.50;1.00;;;;;;5029124;28;20158;-80
2023/11/10 11:14:58;;;;;;;48.15;13.75;;;10.40;1.00;;;;;;5030068;28;20187;-81
2023/11/10 11:17:26;;;;;;;48.35;17.75;;;10.40;1.00;;;;;;5028948;28;20520;-80
2023/11/10 11:19:52;;;;;;;47.47;13.60;;;10.40;1.00;;;;;;5028333;28;20249;-80
2023/11/10 11:22:19;;;;;;;53.85;21.40;;;10.40;1.00;;;;;;5027134;28;20640;-80
2023/11/10 11:24:45;;;;;;;53.95;20.52;;;10.40;1.00;;;;;;5028286;28;20185;-80
2023/11/10 11:27:19;;;;;;;51.80;18.07;;;10.50;1.00;;;;;;5027253;28;20226;-80
2023/11/10 11:29:45;;;;;;;49.65;17.65;;;10.60;1.00;;;;;;5028250;28;20178;-80
2023/11/10 11:32:19;;;;;;;48.53;14.90;;;10.60;1.00;;;;;;5027907;28;20178;-80
2023/11/10 11:34:52;;;;;;;48.97;17.98;;;10.70;1.00;;;;;;5026919;28;20189;-80
2023/11/10 11:37:18;;;;;;;49.90;20.80;;;10.60;1.00;;;;;;5026852;28;20184;-80
2023/11/10 11:39:44;;;;;;;50.53;19.23;;;10.70;1.00;;;;;;5028585;28;20170;-80
2023/11/10 11:42:10;;;;;;;49.70;18.80;;;10.80;1.00;;;;;;5027206;28;20217;-80
2023/11/10 11:44:39;;;;;;;56.17;20.27;;;10.90;1.00;;;;;;5029090;28;20206;-80
2023/11/10 11:47:12;;;;;;;51.92;21.60;;;10.80;1.00;;;;;;5026985;28;20556;-81
2023/11/10 11:49:39;;;;;;;53.72;22.05;;;10.80;1.00;;;;;;5025861;28;20192;-80
2023/11/10 11:52:09;;;;;;;54.47;20.95;;;10.80;1.00;;;;;;5025872;28;20171;-80
2023/11/10 11:54:36;;;;;;;53.55;24.38;;;10.70;1.00;;;;;;5026269;28;20186;-80
2023/11/10 11:57:01;;;;;;;54.83;20.65;;;10.70;1.00;;;;;;5028471;28;20171;-80
2023/11/10 11:59:29;;;;;;;51.27;24.90;;;10.50;1.00;;;;;;5026875;28;20175;-80
2023/11/10 12:01:56;;;;;;;52.67;23.40;;;10.60;1.00;;;;;;5027891;28;20476;-80
2023/11/10 12:04:22;;;;;;;54.10;23.55;;;10.50;1.00;;;;;;5029132;28;20246;-80
2023/11/10 12:06:49;;;;;;;58.95;25.02;;;10.60;1.00;;;;;;5028502;28;20158;-80
2023/11/10 12:09:15;;;;;;;52.05;24.05;;;10.50;1.00;;;;;;5027362;28;20167;-80
2023/11/10 12:11:41;;;;;;;52.28;23.90;;;10.50;1.00;;;;;;5027370;28;20176;-80
2023/11/10 12:14:09;;;;;;;51.72;21.80;;;10.50;1.00;;;;;;5029820;28;20194;-80
2023/11/10 12:16:43;;;;;;;54.35;23.92;;;10.50;1.00;;;;;;5029850;28;20207;-80
2023/11/10 12:19:12;;;;;;;52.17;24.15;;;10.50;1.00;;;;;;5029010;28;20177;-80
2023/11/10 12:21:38;;;;;;;54.47;25.58;;;10.50;1.00;;;;;;5030495;28;20202;-80
2023/11/10 12:24:06;;;;;;;57.37;27.53;;;10.60;1.00;;;;;;5030110;28;20273;-80
2023/11/10 12:26:39;;;;;;;54.08;23.20;;;10.70;1.00;;;;;;5028953;28;20155;-80
2023/11/10 12:29:08;;;;;;;53.22;26.42;;;10.70;1.00;;;;;;5029399;28;20169;-80
2023/11/10 12:31:34;;;;;;;54.42;27.13;;;10.80;1.00;;;;;;5028345;28;20171;-80
2023/11/10 12:34:04;;;;;;;53.50;29.15;;;10.70;1.00;;;;;;5025244;28;20254;-80
2023/11/10 12:36:37;;;;;;;54.40;24.92;;;10.90;1.00;;;;;;5032011;28;20176;-81